sensor_id;sensor_type;location;lat;lon;timestamp;noise_LAeq;noise_LA_min;noise_LA_max;noise_LA01;noise_LA95
81666;Laerm;71083;51.796;10.952;2023-11-22T00:01:34;38.80;28.73;51.25;;
81666;Laerm;71083;51.796;10.952;2023-11-22T00:03:59;38.80;29.29;50.66;;
81666;Laerm;71083;51.796;10.952;2023-11-22T00:06:25;52.84;31.46;68.84;;
81666;Laerm;71083;51.796;10.952;2023-11-22T00:08:52;57.44;32.66;74.55;;
81666;Laerm;71083;51.796;10.952;2023-11-22T00:11:17;56.01;33.37;72.32;;
81666;Laerm;71083;51.796;10.952;2023-11-22T00:13:43;54.87;35.65;69.51;;
81666;Laerm;71083;51.796;10.952;2023-11-22T00:16:08;57.12;31.30;71.54;;
81666;Laerm;71083;51.796;10.952;2023-11-22T00:18:36;40.60;29.82;51.90;;
81666;Laerm;71083;51.796;10.952;2023-11-22T00:21:05;43.36;29.82;63.36;;
81666;Laerm;71083;51.796;10.952;2023-11-22T00:23:31;55.22;29.57;74.61;;
81666;Laerm;71083;51.796;10.952;2023-11-22T00:25:57;51.27;32.11;67.51;;
81666;Laerm;71083;51.796;10.952;2023-11-22T00:28:23;53.11;34.60;68.61;;
81666;Laerm;71083;51.796;10.952;2023-11-22T00:30:48;41.87;32.48;58.37;;
81666;Laerm;71083;51.796;10.952;2023-11-22T00:33:13;53.77;32.71;70.71;;
81666;Laerm;71083;51.796;10.952;2023-11-22T00:35:39;40.45;33.01;49.25;;
81666;Laerm;71083;51.796;10.952;2023-11-22T00:38:05;34.36;30.43;41.56;;
81666;Laerm;71083;51.796;10.952;2023-11-22T00:40:30;53.52;29.48;71.68;;
81666;Laerm;71083;51.796;10.952;2023-11-22T00:42:55;43.03;30.09;57.52;;
81666;Laerm;71083;51.796;10.952;2023-11-22T00:45:21;56.30;30.29;74.40;;
81666;Laerm;71083;51.796;10.952;2023-11-22T00:47:47;31.52;29.68;43.55;;
81666;Laerm;71083;51.796;10.952;2023-11-22T00:50:12;39.81;29.56;51.69;;
81666;Laerm;71083;51.796;10.952;2023-11-22T00:52:38;40.06;29.04;52.25;;
81666;Laerm;71083;51.796;10.952;2023-11-22T00:55:04;43.91;29.63;57.69;;
81666;Laerm;71083;51.796;10.952;2023-11-22T00:57:30;49.43;29.32;65.06;;
81666;Laerm;71083;51.796;10.952;2023-11-22T00:59:55;55.16;29.62;75.24;;
81666;Laerm;71083;51.796;10.952;2023-11-22T01:02:21;51.00;30.06;72.87;;
81666;Laerm;71083;51.796;10.952;2023-11-22T01:04:46;57.23;29.76;76.57;;
81666;Laerm;71083;51.796;10.952;2023-11-22T01:07:11;38.45;32.90;49.92;;
81666;Laerm;71083;51.796;10.952;2023-11-22T01:09:37;55.62;35.39;73.67;;
81666;Laerm;71083;51.796;10.952;2023-11-22T01:12:02;39.80;33.53;48.77;;
81666;Laerm;71083;51.796;10.952;2023-11-22T01:14:28;35.08;31.85;44.50;;
81666;Laerm;71083;51.796;10.952;2023-11-22T01:16:53;52.74;31.19;68.61;;
81666;Laerm;71083;51.796;10.952;2023-11-22T01:19:22;54.17;30.25;71.94;;
81666;Laerm;71083;51.796;10.952;2023-11-22T01:21:47;49.07;32.02;64.21;;
81666;Laerm;71083;51.796;10.952;2023-11-22T01:24:12;55.29;32.40;72.90;;
81666;Laerm;71083;51.796;10.952;2023-11-22T01:26:38;35.07;30.91;50.02;;
81666;Laerm;71083;51.796;10.952;2023-11-22T01:29:03;53.03;30.56;64.02;;
81666;Laerm;71083;51.796;10.952;2023-11-22T01:31:29;59.39;31.65;73.76;;
81666;Laerm;71083;51.796;10.952;2023-11-22T01:33:54;56.52;32.26;74.93;;
81666;Laerm;71083;51.796;10.952;2023-11-22T01:36:20;35.02;30.57;49.43;;
81666;Laerm;71083;51.796;10.952;2023-11-22T01:38:45;40.67;32.49;47.39;;
81666;Laerm;71083;51.796;10.952;2023-11-22T01:41:11;37.79;31.20;49.80;;
81666;Laerm;71083;51.796;10.952;2023-11-22T01:43:38;38.58;31.18;55.90;;
81666;Laerm;71083;51.796;10.952;2023-11-22T01:46:05;52.40;33.89;68.54;;
81666;Laerm;71083;51.796;10.952;2023-11-22T01:48:30;38.42;32.82;46.42;;
81666;Laerm;71083;51.796;10.952;2023-11-22T01:50:57;37.27;30.64;46.82;;
81666;Laerm;71083;51.796;10.952;2023-11-22T01:53:22;60.22;33.30;78.09;;
81666;Laerm;71083;51.796;10.952;2023-11-22T01:55:48;55.11;34.01;71.93;;
81666;Laerm;71083;51.796;10.952;2023-11-22T01:58:13;38.75;31.65;49.32;;
81666;Laerm;71083;51.796;10.952;2023-11-22T02:00:43;51.78;31.68;67.97;;
81666;Laerm;71083;51.796;10.952;2023-11-22T02:03:10;38.49;30.98;48.65;;
81666;Laerm;71083;51.796;10.952;2023-11-22T02:05:35;52.38;32.09;69.19;;
81666;Laerm;71083;51.796;10.952;2023-11-22T02:08:01;44.01;29.46;58.54;;
81666;Laerm;71083;51.796;10.952;2023-11-22T02:10:26;39.98;29.31;53.76;;
81666;Laerm;71083;51.796;10.952;2023-11-22T02:12:51;36.39;31.06;45.39;;
81666;Laerm;71083;51.796;10.952;2023-11-22T02:15:17;37.31;30.50;46.30;;
81666;Laerm;71083;51.796;10.952;2023-11-22T02:17:42;53.43;34.24;69.71;;
81666;Laerm;71083;51.796;10.952;2023-11-22T02:20:07;49.89;33.25;67.69;;
81666;Laerm;71083;51.796;10.952;2023-11-22T02:22:44;50.60;31.48;68.54;;
81666;Laerm;71083;51.796;10.952;2023-11-22T02:25:10;39.17;34.28;46.98;;
81666;Laerm;71083;51.796;10.952;2023-11-22T02:27:36;55.86;35.08;74.00;;
81666;Laerm;71083;51.796;10.952;2023-11-22T02:30:02;45.15;31.93;58.39;;
81666;Laerm;71083;51.796;10.952;2023-11-22T02:32:30;51.23;31.33;66.60;;
81666;Laerm;71083;51.796;10.952;2023-11-22T02:34:56;38.27;32.65;43.97;;
81666;Laerm;71083;51.796;10.952;2023-11-22T02:37:21;37.63;33.18;45.79;;
81666;Laerm;71083;51.796;10.952;2023-11-22T02:39:49;56.46;33.65;74.18;;
81666;Laerm;71083;51.796;10.952;2023-11-22T02:42:19;53.78;31.88;74.83;;
81666;Laerm;71083;51.796;10.952;2023-11-22T02:44:44;37.46;32.66;44.78;;
81666;Laerm;71083;51.796;10.952;2023-11-22T02:47:09;58.30;34.12;76.64;;
81666;Laerm;71083;51.796;10.952;2023-11-22T02:49:35;58.22;32.55;70.39;;
81666;Laerm;71083;51.796;10.952;2023-11-22T02:52:00;42.77;32.08;57.91;;
81666;Laerm;71083;51.796;10.952;2023-11-22T02:54:26;56.65;33.55;71.10;;
81666;Laerm;71083;51.796;10.952;2023-11-22T02:56:51;60.32;34.42;77.02;;
81666;Laerm;71083;51.796;10.952;2023-11-22T02:59:17;54.95;35.22;68.81;;
81666;Laerm;71083;51.796;10.952;2023-11-22T03:01:44;55.84;33.28;72.65;;
81666;Laerm;71083;51.796;10.952;2023-11-22T03:04:09;38.20;31.93;53.36;;
81666;Laerm;71083;51.796;10.952;2023-11-22T03:06:35;52.06;31.81;74.16;;
81666;Laerm;71083;51.796;10.952;2023-11-22T03:09:01;52.20;36.18;68.84;;
81666;Laerm;71083;51.796;10.952;2023-11-22T03:11:27;62.73;37.10;75.62;;
81666;Laerm;71083;51.796;10.952;2023-11-22T03:13:52;43.49;35.27;57.72;;
81666;Laerm;71083;51.796;10.952;2023-11-22T03:16:17;63.83;36.75;80.84;;
81666;Laerm;71083;51.796;10.952;2023-11-22T03:18:43;53.32;37.09;69.09;;
81666;Laerm;71083;51.796;10.952;2023-11-22T03:21:09;53.19;33.31;69.20;;
81666;Laerm;71083;51.796;10.952;2023-11-22T03:23:34;43.81;36.39;52.84;;
81666;Laerm;71083;51.796;10.952;2023-11-22T03:26:00;65.30;39.65;77.62;;
81666;Laerm;71083;51.796;10.952;2023-11-22T03:28:26;62.82;34.91;77.91;;
81666;Laerm;71083;51.796;10.952;2023-11-22T03:30:55;58.68;35.34;77.36;;
81666;Laerm;71083;51.796;10.952;2023-11-22T03:33:20;62.24;35.32;78.33;;
81666;Laerm;71083;51.796;10.952;2023-11-22T03:35:46;61.86;39.61;74.00;;
81666;Laerm;71083;51.796;10.952;2023-11-22T03:38:11;61.66;40.50;72.84;;
81666;Laerm;71083;51.796;10.952;2023-11-22T03:40:36;52.77;36.55;68.42;;
81666;Laerm;71083;51.796;10.952;2023-11-22T03:43:02;57.79;36.57;75.60;;
81666;Laerm;71083;51.796;10.952;2023-11-22T03:45:27;61.54;39.54;76.42;;
81666;Laerm;71083;51.796;10.952;2023-11-22T03:47:52;63.83;38.07;79.67;;
81666;Laerm;71083;51.796;10.952;2023-11-22T03:50:18;62.58;38.46;75.67;;
81666;Laerm;71083;51.796;10.952;2023-11-22T03:52:43;61.15;39.50;72.02;;
81666;Laerm;71083;51.796;10.952;2023-11-22T03:55:08;61.73;41.56;72.39;;
81666;Laerm;71083;51.796;10.952;2023-11-22T03:57:34;61.74;43.15;73.70;;
81666;Laerm;71083;51.796;10.952;2023-11-22T04:00:00;63.58;42.07;75.09;;
81666;Laerm;71083;51.796;10.952;2023-11-22T04:02:25;61.74;36.20;74.08;;
81666;Laerm;71083;51.796;10.952;2023-11-22T04:04:53;60.21;38.34;70.86;;
81666;Laerm;71083;51.796;10.952;2023-11-22T04:07:18;63.16;33.86;76.66;;
81666;Laerm;71083;51.796;10.952;2023-11-22T04:09:44;61.79;35.57;75.07;;
81666;Laerm;71083;51.796;10.952;2023-11-22T04:12:09;58.50;39.07;71.42;;
81666;Laerm;71083;51.796;10.952;2023-11-22T04:14:34;58.87;39.33;73.33;;
81666;Laerm;71083;51.796;10.952;2023-11-22T04:17:00;63.93;40.92;75.97;;
81666;Laerm;71083;51.796;10.952;2023-11-22T04:19:25;63.31;41.51;75.11;;
81666;Laerm;71083;51.796;10.952;2023-11-22T04:21:50;67.37;44.31;83.89;;
81666;Laerm;71083;51.796;10.952;2023-11-22T04:24:16;61.71;43.36;73.15;;
81666;Laerm;71083;51.796;10.952;2023-11-22T04:26:42;66.15;41.97;76.72;;
81666;Laerm;71083;51.796;10.952;2023-11-22T04:29:08;65.38;44.12;77.76;;
81666;Laerm;71083;51.796;10.952;2023-11-22T04:31:33;67.38;41.49;81.03;;
81666;Laerm;71083;51.796;10.952;2023-11-22T04:33:58;65.98;45.32;80.21;;
81666;Laerm;71083;51.796;10.952;2023-11-22T04:36:25;65.97;42.58;75.47;;
81666;Laerm;71083;51.796;10.952;2023-11-22T04:38:50;65.80;42.75;80.05;;
81666;Laerm;71083;51.796;10.952;2023-11-22T04:41:16;64.97;43.78;79.96;;
81666;Laerm;71083;51.796;10.952;2023-11-22T04:43:43;68.50;48.75;82.31;;
81666;Laerm;71083;51.796;10.952;2023-11-22T04:46:10;65.66;40.74;75.80;;
81666;Laerm;71083;51.796;10.952;2023-11-22T04:48:35;65.87;44.57;74.96;;
81666;Laerm;71083;51.796;10.952;2023-11-22T04:51:02;65.96;44.77;80.88;;
81666;Laerm;71083;51.796;10.952;2023-11-22T04:53:27;64.54;41.83;74.95;;
81666;Laerm;71083;51.796;10.952;2023-11-22T04:55:52;66.97;44.35;80.66;;
81666;Laerm;71083;51.796;10.952;2023-11-22T04:58:18;64.77;40.91;75.85;;
81666;Laerm;71083;51.796;10.952;2023-11-22T05:00:43;65.28;49.24;74.53;;
81666;Laerm;71083;51.796;10.952;2023-11-22T05:03:10;66.47;43.92;78.84;;
81666;Laerm;71083;51.796;10.952;2023-11-22T05:05:35;64.06;44.05;74.07;;
81666;Laerm;71083;51.796;10.952;2023-11-22T05:08:01;64.92;45.51;73.59;;
81666;Laerm;71083;51.796;10.952;2023-11-22T05:10:27;65.51;44.33;74.59;;
81666;Laerm;71083;51.796;10.952;2023-11-22T05:12:53;64.64;49.55;74.94;;
81666;Laerm;71083;51.796;10.952;2023-11-22T05:15:18;67.45;46.47;76.03;;
81666;Laerm;71083;51.796;10.952;2023-11-22T05:17:43;67.57;45.07;76.73;;
81666;Laerm;71083;51.796;10.952;2023-11-22T05:20:09;64.57;47.38;73.26;;
81666;Laerm;71083;51.796;10.952;2023-11-22T05:22:35;63.08;43.55;75.72;;
81666;Laerm;71083;51.796;10.952;2023-11-22T05:25:00;65.45;45.55;72.58;;
81666;Laerm;71083;51.796;10.952;2023-11-22T05:27:25;64.37;43.22;73.45;;
81666;Laerm;71083;51.796;10.952;2023-11-22T05:29:51;66.83;48.89;79.31;;
81666;Laerm;71083;51.796;10.952;2023-11-22T05:32:16;68.21;46.48;78.37;;
81666;Laerm;71083;51.796;10.952;2023-11-22T05:34:42;68.48;52.57;81.64;;
81666;Laerm;71083;51.796;10.952;2023-11-22T05:37:08;66.79;47.91;77.17;;
81666;Laerm;71083;51.796;10.952;2023-11-22T05:39:34;69.12;46.50;84.57;;
81666;Laerm;71083;51.796;10.952;2023-11-22T05:41:59;67.43;52.95;75.22;;
81666;Laerm;71083;51.796;10.952;2023-11-22T05:44:25;68.42;45.44;77.03;;
81666;Laerm;71083;51.796;10.952;2023-11-22T05:46:51;68.84;49.96;75.87;;
81666;Laerm;71083;51.796;10.952;2023-11-22T05:49:16;65.80;48.14;74.87;;
81666;Laerm;71083;51.796;10.952;2023-11-22T05:51:42;66.47;45.73;75.87;;
81666;Laerm;71083;51.796;10.952;2023-11-22T05:54:07;69.55;50.17;80.08;;
81666;Laerm;71083;51.796;10.952;2023-11-22T05:56:32;68.99;49.97;80.79;;
81666;Laerm;71083;51.796;10.952;2023-11-22T05:58:58;69.49;55.27;78.37;;
81666;Laerm;71083;51.796;10.952;2023-11-22T06:01:25;70.05;49.96;81.70;;
81666;Laerm;71083;51.796;10.952;2023-11-22T06:03:51;67.66;48.47;79.92;;
81666;Laerm;71083;51.796;10.952;2023-11-22T06:06:16;67.25;53.99;78.54;;
81666;Laerm;71083;51.796;10.952;2023-11-22T06:08:42;65.72;46.88;74.10;;
81666;Laerm;71083;51.796;10.952;2023-11-22T06:11:07;70.85;49.53;82.25;;
81666;Laerm;71083;51.796;10.952;2023-11-22T06:13:33;68.69;51.01;79.29;;
81666;Laerm;71083;51.796;10.952;2023-11-22T06:15:58;67.69;48.52;80.62;;
81666;Laerm;71083;51.796;10.952;2023-11-22T06:18:23;68.95;54.93;81.87;;
81666;Laerm;71083;51.796;10.952;2023-11-22T06:20:54;67.84;51.29;76.38;;
81666;Laerm;71083;51.796;10.952;2023-11-22T06:23:20;67.89;54.18;78.01;;
81666;Laerm;71083;51.796;10.952;2023-11-22T06:25:45;69.05;50.45;80.97;;
81666;Laerm;71083;51.796;10.952;2023-11-22T06:28:11;69.23;52.75;79.88;;
81666;Laerm;71083;51.796;10.952;2023-11-22T06:30:36;66.52;48.42;74.04;;
81666;Laerm;71083;51.796;10.952;2023-11-22T06:33:01;69.11;46.52;83.00;;
81666;Laerm;71083;51.796;10.952;2023-11-22T06:35:27;69.20;55.86;80.67;;
81666;Laerm;71083;51.796;10.952;2023-11-22T06:37:52;67.97;44.80;76.02;;
81666;Laerm;71083;51.796;10.952;2023-11-22T06:40:17;68.42;52.90;75.46;;
81666;Laerm;71083;51.796;10.952;2023-11-22T06:42:43;68.87;53.97;77.63;;
81666;Laerm;71083;51.796;10.952;2023-11-22T06:45:09;69.46;54.00;79.31;;
81666;Laerm;71083;51.796;10.952;2023-11-22T06:47:40;68.46;51.31;75.83;;
81666;Laerm;71083;51.796;10.952;2023-11-22T06:50:06;67.99;46.57;76.90;;
81666;Laerm;71083;51.796;10.952;2023-11-22T06:52:35;68.08;45.84;75.30;;
81666;Laerm;71083;51.796;10.952;2023-11-22T06:55:01;68.17;54.09;76.68;;
81666;Laerm;71083;51.796;10.952;2023-11-22T06:57:27;65.79;49.29;75.11;;
81666;Laerm;71083;51.796;10.952;2023-11-22T06:59:54;67.81;45.53;81.44;;
81666;Laerm;71083;51.796;10.952;2023-11-22T07:02:20;67.95;46.42;81.47;;
81666;Laerm;71083;51.796;10.952;2023-11-22T07:04:45;69.03;54.10;77.45;;
81666;Laerm;71083;51.796;10.952;2023-11-22T07:07:10;68.32;43.54;77.07;;
81666;Laerm;71083;51.796;10.952;2023-11-22T07:09:36;69.36;54.53;81.23;;
81666;Laerm;71083;51.796;10.952;2023-11-22T07:12:01;66.68;45.31;75.74;;
81666;Laerm;71083;51.796;10.952;2023-11-22T07:14:27;65.91;44.58;74.54;;
81666;Laerm;71083;51.796;10.952;2023-11-22T07:16:54;69.00;47.42;79.91;;
81666;Laerm;71083;51.796;10.952;2023-11-22T07:19:20;68.38;52.92;80.87;;
81666;Laerm;71083;51.796;10.952;2023-11-22T07:21:46;69.25;50.01;78.79;;
81666;Laerm;71083;51.796;10.952;2023-11-22T07:24:13;67.91;46.26;80.19;;
81666;Laerm;71083;51.796;10.952;2023-11-22T07:26:40;67.76;49.59;76.87;;
81666;Laerm;71083;51.796;10.952;2023-11-22T07:29:07;68.59;53.81;77.27;;
81666;Laerm;71083;51.796;10.952;2023-11-22T07:31:32;68.87;49.02;87.20;;
81666;Laerm;71083;51.796;10.952;2023-11-22T07:33:58;66.72;53.65;79.52;;
81666;Laerm;71083;51.796;10.952;2023-11-22T07:36:23;69.95;45.28;78.01;;
81666;Laerm;71083;51.796;10.952;2023-11-22T07:38:49;68.10;43.26;79.55;;
81666;Laerm;71083;51.796;10.952;2023-11-22T07:41:15;68.17;51.11;78.48;;
81666;Laerm;71083;51.796;10.952;2023-11-22T07:43:40;68.34;48.30;76.28;;
81666;Laerm;71083;51.796;10.952;2023-11-22T07:46:06;66.95;46.02;76.81;;
81666;Laerm;71083;51.796;10.952;2023-11-22T07:48:37;68.51;52.42;77.00;;
81666;Laerm;71083;51.796;10.952;2023-11-22T07:51:03;67.52;51.48;82.54;;
81666;Laerm;71083;51.796;10.952;2023-11-22T07:53:28;69.94;49.37;78.68;;
81666;Laerm;71083;51.796;10.952;2023-11-22T07:55:54;70.11;45.44;81.39;;
81666;Laerm;71083;51.796;10.952;2023-11-22T07:58:20;67.96;55.87;81.42;;
81666;Laerm;71083;51.796;10.952;2023-11-22T08:00:45;69.74;54.72;78.97;;
81666;Laerm;71083;51.796;10.952;2023-11-22T08:03:10;69.45;48.22;81.43;;
81666;Laerm;71083;51.796;10.952;2023-11-22T08:05:38;68.35;47.77;77.50;;
81666;Laerm;71083;51.796;10.952;2023-11-22T08:08:05;67.57;46.91;75.87;;
81666;Laerm;71083;51.796;10.952;2023-11-22T08:10:34;68.06;48.41;75.53;;
81666;Laerm;71083;51.796;10.952;2023-11-22T08:12:59;65.13;47.57;73.14;;
81666;Laerm;71083;51.796;10.952;2023-11-22T08:15:25;68.01;50.84;79.05;;
81666;Laerm;71083;51.796;10.952;2023-11-22T08:17:50;68.29;43.57;79.41;;
81666;Laerm;71083;51.796;10.952;2023-11-22T08:20:15;68.40;50.99;78.91;;
81666;Laerm;71083;51.796;10.952;2023-11-22T08:22:43;66.61;46.33;77.82;;
81666;Laerm;71083;51.796;10.952;2023-11-22T08:25:10;67.87;42.10;79.52;;
81666;Laerm;71083;51.796;10.952;2023-11-22T08:27:38;69.41;50.27;81.84;;
81666;Laerm;71083;51.796;10.952;2023-11-22T08:30:03;66.39;51.79;74.69;;
81666;Laerm;71083;51.796;10.952;2023-11-22T08:32:30;68.32;49.56;79.73;;
81666;Laerm;71083;51.796;10.952;2023-11-22T08:34:56;68.90;51.81;77.16;;
81666;Laerm;71083;51.796;10.952;2023-11-22T08:37:21;66.66;47.14;78.21;;
81666;Laerm;71083;51.796;10.952;2023-11-22T08:39:47;68.47;46.22;75.62;;
81666;Laerm;71083;51.796;10.952;2023-11-22T08:42:12;68.94;49.23;76.26;;
81666;Laerm;71083;51.796;10.952;2023-11-22T08:44:39;64.96;45.82;74.21;;
81666;Laerm;71083;51.796;10.952;2023-11-22T08:47:04;69.13;53.39;76.03;;
81666;Laerm;71083;51.796;10.952;2023-11-22T08:49:30;68.60;45.59;83.28;;
81666;Laerm;71083;51.796;10.952;2023-11-22T08:51:58;69.27;53.27;82.09;;
81666;Laerm;71083;51.796;10.952;2023-11-22T08:54:24;68.87;43.57;81.90;;
81666;Laerm;71083;51.796;10.952;2023-11-22T08:56:49;67.88;49.75;76.23;;
81666;Laerm;71083;51.796;10.952;2023-11-22T08:59:15;67.75;50.76;75.14;;
81666;Laerm;71083;51.796;10.952;2023-11-22T09:01:41;70.30;51.73;81.79;;
81666;Laerm;71083;51.796;10.952;2023-11-22T09:04:10;68.59;45.87;75.58;;
81666;Laerm;71083;51.796;10.952;2023-11-22T09:06:36;68.75;45.25;77.81;;
81666;Laerm;71083;51.796;10.952;2023-11-22T09:09:01;69.70;45.29;80.29;;
81666;Laerm;71083;51.796;10.952;2023-11-22T09:11:27;68.04;46.39;76.02;;
81666;Laerm;71083;51.796;10.952;2023-11-22T09:13:53;70.36;57.73;78.02;;
81666;Laerm;71083;51.796;10.952;2023-11-22T09:16:22;65.48;50.73;73.47;;
81666;Laerm;71083;51.796;10.952;2023-11-22T09:18:50;68.69;48.53;75.27;;
81666;Laerm;71083;51.796;10.952;2023-11-22T09:21:15;68.95;53.39;79.88;;
81666;Laerm;71083;51.796;10.952;2023-11-22T09:23:42;68.27;53.34;75.61;;
81666;Laerm;71083;51.796;10.952;2023-11-22T09:26:07;67.83;56.70;75.31;;
81666;Laerm;71083;51.796;10.952;2023-11-22T09:28:32;67.71;43.82;74.98;;
81666;Laerm;71083;51.796;10.952;2023-11-22T09:30:58;67.34;46.37;75.07;;
81666;Laerm;71083;51.796;10.952;2023-11-22T09:33:31;84.69;56.64;104.53;;
81666;Laerm;71083;51.796;10.952;2023-11-22T09:35:56;68.90;48.49;79.16;;
81666;Laerm;71083;51.796;10.952;2023-11-22T09:38:23;69.92;46.60;80.07;;
81666;Laerm;71083;51.796;10.952;2023-11-22T09:40:48;67.97;49.00;76.84;;
81666;Laerm;71083;51.796;10.952;2023-11-22T09:43:15;70.09;53.07;79.48;;
81666;Laerm;71083;51.796;10.952;2023-11-22T09:45:42;70.46;48.75;86.22;;
81666;Laerm;71083;51.796;10.952;2023-11-22T09:48:13;68.80;50.12;80.44;;
81666;Laerm;71083;51.796;10.952;2023-11-22T09:50:40;70.03;48.25;82.31;;
81666;Laerm;71083;51.796;10.952;2023-11-22T09:53:11;67.68;52.51;77.55;;
81666;Laerm;71083;51.796;10.952;2023-11-22T09:55:39;69.61;52.52;77.72;;
81666;Laerm;71083;51.796;10.952;2023-11-22T09:58:08;68.19;49.80;76.08;;
81666;Laerm;71083;51.796;10.952;2023-11-22T10:00:35;68.32;44.44;77.26;;
81666;Laerm;71083;51.796;10.952;2023-11-22T10:03:00;68.97;48.64;76.74;;
81666;Laerm;71083;51.796;10.952;2023-11-22T10:05:26;66.29;52.59;73.34;;
81666;Laerm;71083;51.796;10.952;2023-11-22T10:07:54;67.91;53.66;77.70;;
81666;Laerm;71083;51.796;10.952;2023-11-22T10:10:21;67.98;47.76;76.91;;
81666;Laerm;71083;51.796;10.952;2023-11-22T10:12:47;66.96;49.16;75.74;;
81666;Laerm;71083;51.796;10.952;2023-11-22T10:15:14;68.28;55.23;77.63;;
81666;Laerm;71083;51.796;10.952;2023-11-22T10:17:39;69.71;48.31;81.64;;
81666;Laerm;71083;51.796;10.952;2023-11-22T10:20:05;69.48;56.55;79.15;;
81666;Laerm;71083;51.796;10.952;2023-11-22T10:22:44;68.57;56.69;79.56;;
81666;Laerm;71083;51.796;10.952;2023-11-22T10:25:10;68.41;49.53;77.26;;
81666;Laerm;71083;51.796;10.952;2023-11-22T10:27:38;70.11;51.85;79.66;;
81666;Laerm;71083;51.796;10.952;2023-11-22T10:30:03;69.30;48.19;78.34;;
81666;Laerm;71083;51.796;10.952;2023-11-22T10:32:29;69.54;45.48;80.06;;
81666;Laerm;71083;51.796;10.952;2023-11-22T10:34:55;69.46;53.14;81.06;;
81666;Laerm;71083;51.796;10.952;2023-11-22T10:37:20;67.09;51.67;74.52;;
81666;Laerm;71083;51.796;10.952;2023-11-22T10:39:50;70.15;53.68;79.87;;
81666;Laerm;71083;51.796;10.952;2023-11-22T10:42:15;69.21;49.46;79.48;;
81666;Laerm;71083;51.796;10.952;2023-11-22T10:44:41;67.35;48.16;75.32;;
81666;Laerm;71083;51.796;10.952;2023-11-22T10:47:07;68.85;43.92;77.77;;
81666;Laerm;71083;51.796;10.952;2023-11-22T10:49:33;68.93;53.57;80.47;;
81666;Laerm;71083;51.796;10.952;2023-11-22T10:51:58;68.72;52.00;76.13;;
81666;Laerm;71083;51.796;10.952;2023-11-22T10:54:25;69.28;55.03;81.73;;
81666;Laerm;71083;51.796;10.952;2023-11-22T10:56:53;69.75;50.13;81.38;;
81666;Laerm;71083;51.796;10.952;2023-11-22T10:59:20;68.60;51.17;76.71;;
81666;Laerm;71083;51.796;10.952;2023-11-22T11:01:47;68.04;50.34;76.86;;
81666;Laerm;71083;51.796;10.952;2023-11-22T11:04:19;68.46;48.55;80.81;;
81666;Laerm;71083;51.796;10.952;2023-11-22T11:06:45;69.61;46.61;79.65;;
81666;Laerm;71083;51.796;10.952;2023-11-22T11:09:11;68.36;52.19;77.66;;
81666;Laerm;71083;51.796;10.952;2023-11-22T11:11:40;69.59;48.14;80.58;;
81666;Laerm;71083;51.796;10.952;2023-11-22T11:14:06;69.31;56.21;79.41;;
81666;Laerm;71083;51.796;10.952;2023-11-22T11:16:33;68.49;41.10;77.40;;
81666;Laerm;71083;51.796;10.952;2023-11-22T11:19:02;70.01;47.71;80.44;;
81666;Laerm;71083;51.796;10.952;2023-11-22T11:21:28;69.29;45.19;79.86;;
81666;Laerm;71083;51.796;10.952;2023-11-22T11:23:54;68.54;48.44;78.06;;
81666;Laerm;71083;51.796;10.952;2023-11-22T11:26:23;68.43;49.21;77.94;;
81666;Laerm;71083;51.796;10.952;2023-11-22T11:28:51;69.24;44.75;79.07;;
81666;Laerm;71083;51.796;10.952;2023-11-22T11:31:17;68.95;54.21;79.97;;
81666;Laerm;71083;51.796;10.952;2023-11-22T11:36:23;68.83;44.82;77.88;;
81666;Laerm;71083;51.796;10.952;2023-11-22T11:38:52;67.74;43.84;76.68;;
81666;Laerm;71083;51.796;10.952;2023-11-22T11:41:18;69.01;45.44;78.48;;
81666;Laerm;71083;51.796;10.952;2023-11-22T11:43:44;70.02;49.57;78.26;;
81666;Laerm;71083;51.796;10.952;2023-11-22T11:46:13;67.86;52.27;78.74;;
81666;Laerm;71083;51.796;10.952;2023-11-22T11:48:42;68.87;48.21;76.98;;
81666;Laerm;71083;51.796;10.952;2023-11-22T11:51:07;69.51;53.06;78.55;;
81666;Laerm;71083;51.796;10.952;2023-11-22T11:53:33;70.62;55.64;79.90;;
81666;Laerm;71083;51.796;10.952;2023-11-22T11:55:58;69.22;51.23;78.89;;
81666;Laerm;71083;51.796;10.952;2023-11-22T11:58:24;68.82;53.18;79.76;;
81666;Laerm;71083;51.796;10.952;2023-11-22T12:00:52;66.68;48.38;74.31;;
81666;Laerm;71083;51.796;10.952;2023-11-22T12:03:19;69.21;46.77;79.80;;
81666;Laerm;71083;51.796;10.952;2023-11-22T12:05:46;69.73;50.10;79.81;;
81666;Laerm;71083;51.796;10.952;2023-11-22T12:08:12;68.31;47.40;78.09;;
81666;Laerm;71083;51.796;10.952;2023-11-22T12:10:40;67.91;46.61;79.63;;
81666;Laerm;71083;51.796;10.952;2023-11-22T12:13:06;69.15;54.56;82.10;;
81666;Laerm;71083;51.796;10.952;2023-11-22T12:15:33;68.32;50.32;74.58;;
81666;Laerm;71083;51.796;10.952;2023-11-22T12:17:58;68.00;47.47;76.80;;
81666;Laerm;71083;51.796;10.952;2023-11-22T12:20:24;68.66;49.43;84.06;;
81666;Laerm;71083;51.796;10.952;2023-11-22T12:22:51;68.78;55.47;79.02;;
81666;Laerm;71083;51.796;10.952;2023-11-22T12:25:17;69.75;53.39;79.48;;
81666;Laerm;71083;51.796;10.952;2023-11-22T12:27:42;69.68;50.84;77.58;;
81666;Laerm;71083;51.796;10.952;2023-11-22T12:30:09;69.70;58.60;79.57;;
81666;Laerm;71083;51.796;10.952;2023-11-22T12:32:52;71.57;54.16;82.57;;
81666;Laerm;71083;51.796;10.952;2023-11-22T12:35:18;68.20;49.05;78.37;;
81666;Laerm;71083;51.796;10.952;2023-11-22T12:37:43;68.40;48.78;78.04;;
81666;Laerm;71083;51.796;10.952;2023-11-22T12:40:09;68.67;52.40;79.56;;
81666;Laerm;71083;51.796;10.952;2023-11-22T12:42:45;69.23;51.25;77.12;;
81666;Laerm;71083;51.796;10.952;2023-11-22T12:45:17;68.94;52.03;76.79;;
81666;Laerm;71083;51.796;10.952;2023-11-22T12:47:43;67.59;48.65;76.03;;
81666;Laerm;71083;51.796;10.952;2023-11-22T12:50:28;71.22;60.46;78.95;;
81666;Laerm;71083;51.796;10.952;2023-11-22T12:52:54;69.92;47.38;78.72;;
81666;Laerm;71083;51.796;10.952;2023-11-22T12:55:19;68.78;50.17;76.59;;
81666;Laerm;71083;51.796;10.952;2023-11-22T12:57:56;67.80;53.77;74.65;;
81666;Laerm;71083;51.796;10.952;2023-11-22T13:00:21;67.95;54.10;77.18;;
81666;Laerm;71083;51.796;10.952;2023-11-22T13:02:46;66.21;51.11;75.08;;
81666;Laerm;71083;51.796;10.952;2023-11-22T13:05:12;67.76;52.19;76.93;;
81666;Laerm;71083;51.796;10.952;2023-11-22T13:07:40;69.40;48.20;80.99;;
81666;Laerm;71083;51.796;10.952;2023-11-22T13:10:12;68.68;41.79;79.56;;
81666;Laerm;71083;51.796;10.952;2023-11-22T13:12:38;68.45;45.84;79.72;;
81666;Laerm;71083;51.796;10.952;2023-11-22T13:15:04;68.37;50.08;76.21;;
81666;Laerm;71083;51.796;10.952;2023-11-22T13:17:36;68.71;49.13;77.48;;
81666;Laerm;71083;51.796;10.952;2023-11-22T13:20:02;69.44;53.10;78.83;;
81666;Laerm;71083;51.796;10.952;2023-11-22T13:22:28;68.98;52.06;77.83;;
81666;Laerm;71083;51.796;10.952;2023-11-22T13:24:54;67.56;52.39;75.91;;
81666;Laerm;71083;51.796;10.952;2023-11-22T13:27:19;69.42;50.02;79.41;;
81666;Laerm;71083;51.796;10.952;2023-11-22T13:29:45;69.66;45.89;78.52;;